Time;durP1;ratioP1;P1;durP2;ratioP2;P2;SDS_P1;SDS_P2;PMS_P1;PMS_P2;Temp;Humidity;BMP_temperature;BMP_pressure;BME280_temperature;BME280_humidity;BME280_pressure;Samples;Min_cycle;Max_cycle;Signal;HPM_P1;HPM_P2
2021/08/02 00:01:09;;;;;;;9.00;6.32;;;;;;;;;;2083234;28;20666;-56
2021/08/02 00:02:15;;;;;;;13.27;6.40;;;;;;;;;;2075302;28;20180;-54
2021/08/02 00:03:34;;;;;;;7.75;6.80;;;;;;;;;;2089667;28;20231;-56
2021/08/02 00:04:41;;;;;;;7.38;6.53;;;;;;;;;;2105390;28;20166;-63
2021/08/02 00:05:46;;;;;;;10.77;6.93;;;;;;;;;;2097623;28;20717;-59
2021/08/02 00:06:49;;;;;;;10.10;6.38;;;;;;;;;;2089577;28;20205;-57
2021/08/02 00:08:00;;;;;;;7.15;6.45;;;;;;;;;;2101920;28;20692;-58
2021/08/02 00:09:02;;;;;;;6.50;5.90;;;;;;;;;;2104140;28;20159;-57
2021/08/02 00:10:10;;;;;;;11.48;6.25;;;;;;;;;;2098190;28;20184;-58
2021/08/02 00:11:12;;;;;;;7.88;6.22;;;;;;;;;;2101677;28;20553;-60
2021/08/02 00:12:16;;;;;;;7.80;6.35;;;;;;;;;;2102545;28;20171;-58
2021/08/02 00:13:36;;;;;;;7.90;5.32;;;;;;;;;;2099898;28;20261;-60
2021/08/02 00:14:39;;;;;;;7.65;6.60;;;;;;;;;;2097911;28;20182;-58
2021/08/02 00:15:39;;;;;;;8.02;6.15;;;;;;;;;;2102145;28;20261;-60
2021/08/02 00:16:40;;;;;;;7.60;6.05;;;;;;;;;;2105663;28;20174;-57
2021/08/02 00:17:41;;;;;;;8.95;6.35;;;;;;;;;;2097901;28;20236;-58
2021/08/02 00:18:42;;;;;;;9.88;5.85;;;;;;;;;;2105116;28;20601;-58
2021/08/02 00:19:42;;;;;;;7.55;6.03;;;;;;;;;;2102102;28;20269;-58
2021/08/02 00:20:42;;;;;;;11.40;6.57;;;;;;;;;;2105480;28;20197;-59
2021/08/02 00:21:43;;;;;;;9.93;6.53;;;;;;;;;;2097053;28;20167;-56
2021/08/02 00:22:44;;;;;;;10.27;6.40;;;;;;;;;;2103791;28;20198;-60
2021/08/02 00:23:44;;;;;;;7.25;6.60;;;;;;;;;;2097230;28;20685;-58
2021/08/02 00:24:45;;;;;;;6.68;5.85;;;;;;;;;;2089117;28;20195;-57
2021/08/02 00:25:45;;;;;;;6.97;6.25;;;;;;;;;;2106109;28;20179;-57
2021/08/02 00:26:46;;;;;;;8.40;6.53;;;;;;;;;;2097579;28;20202;-52
2021/08/02 00:27:46;;;;;;;10.65;6.53;;;;;;;;;;2094598;28;20180;-56
2021/08/02 00:28:46;;;;;;;9.00;6.72;;;;;;;;;;2091653;28;20683;-65
2021/08/02 00:29:47;;;;;;;9.90;7.00;;;;;;;;;;2100176;28;20171;-59
2021/08/02 00:30:48;;;;;;;9.93;6.82;;;;;;;;;;2089152;28;20195;-56
2021/08/02 00:31:48;;;;;;;10.43;6.90;;;;;;;;;;2092777;28;20525;-57
2021/08/02 00:32:48;;;;;;;7.00;6.05;;;;;;;;;;2106343;28;20166;-56
2021/08/02 00:33:49;;;;;;;10.32;7.32;;;;;;;;;;2093785;28;20660;-58
2021/08/02 00:34:49;;;;;;;9.95;8.75;;;;;;;;;;2102969;28;20171;-58
2021/08/02 00:35:52;;;;;;;15.20;10.93;;;;;;;;;;2093880;28;20215;-59
2021/08/02 00:36:58;;;;;;;10.70;7.22;;;;;;;;;;2097608;28;20187;-57
2021/08/02 00:38:07;;;;;;;11.35;7.20;;;;;;;;;;2102360;28;20182;-57
2021/08/02 00:39:28;;;;;;;10.55;7.63;;;;;;;;;;2102868;28;20250;-58
2021/08/02 00:40:45;;;;;;;7.25;6.32;;;;;;;;;;2097501;28;20261;-58
2021/08/02 00:41:58;;;;;;;7.53;6.72;;;;;;;;;;2098274;28;20179;-58
2021/08/02 00:43:05;;;;;;;8.60;6.50;;;;;;;;;;2110447;28;20162;-57
2021/08/02 00:44:17;;;;;;;9.40;6.80;;;;;;;;;;2101522;28;20303;-57
2021/08/02 00:45:20;;;;;;;8.38;6.97;;;;;;;;;;2100281;28;20217;-55
2021/08/02 00:46:22;;;;;;;10.57;7.05;;;;;;;;;;2099411;28;20622;-56
2021/08/02 00:47:27;;;;;;;8.25;6.30;;;;;;;;;;2092361;28;20300;-57
2021/08/02 00:48:28;;;;;;;9.02;6.15;;;;;;;;;;2097034;28;20171;-56
2021/08/02 00:49:29;;;;;;;8.85;6.15;;;;;;;;;;2097274;28;20583;-57
2021/08/02 00:50:32;;;;;;;7.70;6.30;;;;;;;;;;2091510;28;20175;-57
2021/08/02 00:51:33;;;;;;;6.88;6.18;;;;;;;;;;2089059;28;20174;-58
2021/08/02 00:52:35;;;;;;;7.93;6.47;;;;;;;;;;2096415;28;20190;-58
2021/08/02 00:53:37;;;;;;;7.68;6.30;;;;;;;;;;2098686;28;20181;-56
2021/08/02 00:54:38;;;;;;;9.85;5.75;;;;;;;;;;2105078;28;20647;-57
2021/08/02 00:55:40;;;;;;;9.23;6.13;;;;;;;;;;2095795;28;20286;-56
2021/08/02 00:56:41;;;;;;;9.98;6.45;;;;;;;;;;2097807;28;20217;-57
2021/08/02 00:57:42;;;;;;;6.80;5.63;;;;;;;;;;2103743;28;20166;-57
2021/08/02 00:58:44;;;;;;;6.97;5.90;;;;;;;;;;2098090;28;20189;-57
2021/08/02 00:59:44;;;;;;;9.75;6.40;;;;;;;;;;2089297;28;20176;-56
2021/08/02 01:00:47;;;;;;;8.75;6.25;;;;;;;;;;2089714;28;20171;-58
2021/08/02 01:01:48;;;;;;;7.38;6.50;;;;;;;;;;2097146;28;20175;-57
2021/08/02 01:02:51;;;;;;;7.60;6.60;;;;;;;;;;2104663;28;20236;-57
2021/08/02 01:03:53;;;;;;;9.35;6.00;;;;;;;;;;2083682;28;20176;-53
2021/08/02 01:04:54;;;;;;;8.45;5.93;;;;;;;;;;2091605;28;20163;-56
2021/08/02 01:05:55;;;;;;;8.43;5.82;;;;;;;;;;2093417;28;20170;-60
2021/08/02 01:06:56;;;;;;;8.95;5.95;;;;;;;;;;2105363;28;20213;-57
2021/08/02 01:07:59;;;;;;;10.57;6.10;;;;;;;;;;2096375;28;20197;-56
2021/08/02 01:09:03;;;;;;;6.88;6.25;;;;;;;;;;2089579;28;20179;-55
2021/08/02 01:10:06;;;;;;;9.75;6.57;;;;;;;;;;2094287;28;20281;-57
2021/08/02 01:11:11;;;;;;;9.57;6.03;;;;;;;;;;2091275;28;20167;-58
2021/08/02 01:12:13;;;;;;;6.18;5.45;;;;;;;;;;2098023;28;20178;-57
2021/08/02 01:13:16;;;;;;;8.55;6.03;;;;;;;;;;2099953;28;20185;-56
2021/08/02 01:14:17;;;;;;;7.65;6.90;;;;;;;;;;2085940;28;20176;-58
2021/08/02 01:15:19;;;;;;;9.85;6.80;;;;;;;;;;2092161;28;20265;-56
2021/08/02 01:16:21;;;;;;;8.02;6.35;;;;;;;;;;2102074;28;20311;-57
2021/08/02 01:17:22;;;;;;;7.13;6.43;;;;;;;;;;2104837;28;20268;-54
2021/08/02 01:18:25;;;;;;;10.60;6.45;;;;;;;;;;2096164;28;20271;-58
2021/08/02 01:19:27;;;;;;;9.38;6.57;;;;;;;;;;2093318;28;20595;-57
2021/08/02 01:20:31;;;;;;;8.48;6.60;;;;;;;;;;2095498;28;20261;-57
2021/08/02 01:21:36;;;;;;;11.20;6.90;;;;;;;;;;2097023;28;20175;-58
2021/08/02 01:22:37;;;;;;;8.10;6.88;;;;;;;;;;2104603;28;20182;-57
2021/08/02 01:23:39;;;;;;;7.95;6.38;;;;;;;;;;2095452;28;20689;-57
2021/08/02 01:24:39;;;;;;;9.07;6.25;;;;;;;;;;2104865;28;20207;-57
2021/08/02 01:25:39;;;;;;;7.75;6.55;;;;;;;;;;2101022;28;20167;-58
2021/08/02 01:26:43;;;;;;;7.32;6.63;;;;;;;;;;2106003;28;20174;-58
2021/08/02 01:27:46;;;;;;;9.40;6.90;;;;;;;;;;2091434;28;20175;-55
2021/08/02 01:29:07;;;;;;;8.27;6.95;;;;;;;;;;2101237;28;20721;-59
2021/08/02 01:30:22;;;;;;;8.27;7.50;;;;;;;;;;2090092;28;20224;-57
2021/08/02 01:31:26;;;;;;;13.68;6.85;;;;;;;;;;2095908;28;20213;-57
2021/08/02 01:32:27;;;;;;;12.25;7.30;;;;;;;;;;2100725;28;20179;-56
2021/08/02 01:33:34;;;;;;;11.38;7.82;;;;;;;;;;2091368;28;20168;-55
2021/08/02 01:34:47;;;;;;;10.15;8.20;;;;;;;;;;2083988;28;20660;-58
2021/08/02 01:35:47;;;;;;;11.60;7.88;;;;;;;;;;2100600;28;20500;-57
2021/08/02 01:36:49;;;;;;;9.98;7.22;;;;;;;;;;2099261;28;20262;-59
2021/08/02 01:37:51;;;;;;;9.80;8.02;;;;;;;;;;2097257;28;20177;-56
2021/08/02 01:38:56;;;;;;;9.35;7.53;;;;;;;;;;2094279;28;20172;-57
2021/08/02 01:40:03;;;;;;;10.13;7.63;;;;;;;;;;2099751;28;21069;-56
2021/08/02 01:41:09;;;;;;;11.27;7.38;;;;;;;;;;2100420;28;20566;-57
2021/08/02 01:42:13;;;;;;;8.02;6.70;;;;;;;;;;2099881;28;20174;-57
2021/08/02 01:43:15;;;;;;;10.63;7.32;;;;;;;;;;2099830;28;20170;-55
2021/08/02 01:44:17;;;;;;;11.27;7.68;;;;;;;;;;2090229;28;20232;-53
2021/08/02 01:45:18;;;;;;;11.57;8.07;;;;;;;;;;2097211;28;20783;-57
2021/08/02 01:46:18;;;;;;;14.55;8.20;;;;;;;;;;2093855;28;20175;-54
2021/08/02 01:47:29;;;;;;;9.40;7.35;;;;;;;;;;2093896;28;20206;-53
2021/08/02 01:48:44;;;;;;;13.05;6.60;;;;;;;;;;2092240;28;20159;-52
2021/08/02 01:49:47;;;;;;;10.50;7.85;;;;;;;;;;2083599;28;20183;-56
2021/08/02 01:50:51;;;;;;;8.07;7.22;;;;;;;;;;2098746;28;20187;-56
2021/08/02 01:51:52;;;;;;;9.55;7.00;;;;;;;;;;2101363;28;20656;-58
2021/08/02 01:53:02;;;;;;;8.18;6.90;;;;;;;;;;2093112;28;20267;-55
2021/08/02 01:54:07;;;;;;;9.55;7.45;;;;;;;;;;2090640;28;20171;-56
2021/08/02 01:55:16;;;;;;;8.85;6.90;;;;;;;;;;2095152;28;20286;-54
2021/08/02 01:56:24;;;;;;;9.20;7.65;;;;;;;;;;2098668;28;20272;-57
2021/08/02 01:57:38;;;;;;;8.52;6.80;;;;;;;;;;2098731;28;20167;-56
2021/08/02 01:59:11;;;;;;;14.07;7.57;;;;;;;;;;2093794;28;20285;-57
2021/08/02 02:00:16;;;;;;;7.40;6.60;;;;;;;;;;2097321;28;20849;-56
2021/08/02 02:01:22;;;;;;;11.25;7.28;;;;;;;;;;2099487;28;20192;-52
2021/08/02 02:02:23;;;;;;;7.88;6.55;;;;;;;;;;2100057;28;20162;-51
2021/08/02 02:03:25;;;;;;;11.20;7.22;;;;;;;;;;2099806;28;20328;-56
2021/08/02 02:04:52;;;;;;;10.13;6.55;;;;;;;;;;2103603;28;20674;-57
2021/08/02 02:05:54;;;;;;;9.25;7.72;;;;;;;;;;2091991;28;20202;-56
2021/08/02 02:06:57;;;;;;;11.32;7.60;;;;;;;;;;2097921;28;20163;-52
2021/08/02 02:08:10;;;;;;;15.23;7.72;;;;;;;;;;2088707;28;20172;-58
2021/08/02 02:09:12;;;;;;;10.57;6.85;;;;;;;;;;2089320;28;20163;-59
2021/08/02 02:10:13;;;;;;;9.40;6.60;;;;;;;;;;2097226;28;20175;-57
2021/08/02 02:11:14;;;;;;;9.05;7.50;;;;;;;;;;2098257;28;20300;-56
2021/08/02 02:12:22;;;;;;;12.18;6.75;;;;;;;;;;2094374;28;20213;-56
2021/08/02 02:13:36;;;;;;;9.93;7.60;;;;;;;;;;2102819;28;20221;-58
2021/08/02 02:14:37;;;;;;;8.63;7.22;;;;;;;;;;2097599;28;20163;-57
2021/08/02 02:15:40;;;;;;;10.98;6.97;;;;;;;;;;2096265;28;20191;-58
2021/08/02 02:16:42;;;;;;;11.85;6.95;;;;;;;;;;2088939;28;20200;-59
2021/08/02 02:17:43;;;;;;;11.85;7.18;;;;;;;;;;2096267;28;20214;-52
2021/08/02 02:18:49;;;;;;;12.73;7.13;;;;;;;;;;2090540;28;20194;-56
2021/08/02 02:19:51;;;;;;;10.70;6.78;;;;;;;;;;2105734;28;20163;-57
2021/08/02 02:20:52;;;;;;;9.48;6.90;;;;;;;;;;2097919;28;20187;-57
2021/08/02 02:21:55;;;;;;;8.30;6.25;;;;;;;;;;2104156;28;20166;-56
2021/08/02 02:22:56;;;;;;;9.63;6.15;;;;;;;;;;2093576;28;20571;-56
2021/08/02 02:23:56;;;;;;;9.20;6.38;;;;;;;;;;2099691;28;20179;-56
2021/08/02 02:24:57;;;;;;;9.30;6.32;;;;;;;;;;2097807;28;20182;-56
2021/08/02 02:26:06;;;;;;;10.15;6.82;;;;;;;;;;2103138;28;20206;-54
2021/08/02 02:27:07;;;;;;;7.43;6.60;;;;;;;;;;2089523;28;20195;-57
2021/08/02 02:28:10;;;;;;;10.77;6.50;;;;;;;;;;2099002;28;20175;-54
2021/08/02 02:29:11;;;;;;;10.13;6.32;;;;;;;;;;2100380;28;20236;-55
2021/08/02 02:30:12;;;;;;;6.93;6.15;;;;;;;;;;2103457;28;20167;-55
2021/08/02 02:31:14;;;;;;;10.68;6.63;;;;;;;;;;2097273;28;20673;-57
2021/08/02 02:32:17;;;;;;;8.82;6.20;;;;;;;;;;2098458;28;20309;-55
2021/08/02 02:33:18;;;;;;;9.18;6.00;;;;;;;;;;2101597;28;20255;-55
2021/08/02 02:34:19;;;;;;;8.70;6.20;;;;;;;;;;2100855;28;20248;-53
2021/08/02 02:35:23;;;;;;;7.32;6.05;;;;;;;;;;2092043;28;20685;-57
2021/08/02 02:36:24;;;;;;;9.10;5.90;;;;;;;;;;2095776;28;20193;-58
2021/08/02 02:37:25;;;;;;;10.30;6.30;;;;;;;;;;2099648;28;20195;-58
2021/08/02 02:38:30;;;;;;;11.00;6.47;;;;;;;;;;2090057;28;20174;-58
2021/08/02 02:39:31;;;;;;;10.95;6.13;;;;;;;;;;2088334;28;20698;-53
2021/08/02 02:40:31;;;;;;;11.75;6.32;;;;;;;;;;2099790;28;20226;-54
2021/08/02 02:41:33;;;;;;;8.20;5.75;;;;;;;;;;2095516;28;20214;-52
2021/08/02 02:42:34;;;;;;;8.70;6.10;;;;;;;;;;2096870;28;20213;-55
2021/08/02 02:43:40;;;;;;;8.00;7.10;;;;;;;;;;2097605;28;20549;-56
2021/08/02 02:44:40;;;;;;;9.13;6.20;;;;;;;;;;2096612;28;20179;-52
2021/08/02 02:45:41;;;;;;;11.25;7.10;;;;;;;;;;2110948;23;20227;-54
2021/08/02 02:46:43;;;;;;;7.82;6.30;;;;;;;;;;2087031;28;20562;-51
2021/08/02 02:47:45;;;;;;;8.32;6.03;;;;;;;;;;2080452;28;20176;-53
2021/08/02 02:48:46;;;;;;;12.85;6.75;;;;;;;;;;2081170;28;20700;-51
2021/08/02 02:49:47;;;;;;;10.63;6.05;;;;;;;;;;2080070;28;20227;-54
2021/08/02 02:50:48;;;;;;;9.43;5.75;;;;;;;;;;2080234;28;20206;-54
2021/08/02 02:51:49;;;;;;;9.50;6.13;;;;;;;;;;2088093;28;20180;-50
2021/08/02 02:52:51;;;;;;;7.47;6.45;;;;;;;;;;2088259;28;20639;-52
2021/08/02 02:53:52;;;;;;;7.30;5.72;;;;;;;;;;2080896;28;20265;-53
2021/08/02 02:54:53;;;;;;;9.05;6.45;;;;;;;;;;2095318;28;20208;-51
2021/08/02 02:55:56;;;;;;;10.45;5.97;;;;;;;;;;2088116;28;20195;-53
2021/08/02 02:56:58;;;;;;;9.35;6.30;;;;;;;;;;2086880;28;20172;-56
2021/08/02 02:58:01;;;;;;;9.60;6.32;;;;;;;;;;2080272;28;20198;-53
2021/08/02 02:59:03;;;;;;;10.00;6.45;;;;;;;;;;2073665;28;20176;-51
2021/08/02 03:00:05;;;;;;;6.32;5.70;;;;;;;;;;2082909;28;20183;-52
2021/08/02 03:01:07;;;;;;;7.70;6.15;;;;;;;;;;2081644;28;20226;-52
2021/08/02 03:02:08;;;;;;;11.45;6.70;;;;;;;;;;2081608;28;20652;-54
2021/08/02 03:03:08;;;;;;;9.52;6.85;;;;;;;;;;2082211;28;20338;-53
2021/08/02 03:04:10;;;;;;;9.32;6.45;;;;;;;;;;2092367;28;20208;-54
2021/08/02 03:05:11;;;;;;;11.43;6.75;;;;;;;;;;2096839;28;20266;-54
2021/08/02 03:06:12;;;;;;;8.05;6.82;;;;;;;;;;2092823;28;20196;-52
2021/08/02 03:07:13;;;;;;;7.30;6.60;;;;;;;;;;2093008;28;20286;-53
2021/08/02 03:08:19;;;;;;;10.10;7.32;;;;;;;;;;2091738;28;20213;-50
2021/08/02 03:09:23;;;;;;;11.15;6.72;;;;;;;;;;2093354;28;20206;-52
2021/08/02 03:10:24;;;;;;;10.70;7.03;;;;;;;;;;2082516;28;20207;-54
2021/08/02 03:11:24;;;;;;;11.18;6.40;;;;;;;;;;2073102;28;20253;-50
2021/08/02 03:12:25;;;;;;;10.32;7.22;;;;;;;;;;2084595;28;20207;-51
2021/08/02 03:13:26;;;;;;;10.30;7.50;;;;;;;;;;2089854;28;20578;-52
2021/08/02 03:14:27;;;;;;;11.38;6.55;;;;;;;;;;2095071;28;20250;-51
2021/08/02 03:15:27;;;;;;;11.63;7.03;;;;;;;;;;2092142;28;20163;-52
2021/08/02 03:16:27;;;;;;;15.02;6.60;;;;;;;;;;2089862;28;20175;-52
2021/08/02 03:17:28;;;;;;;15.38;7.30;;;;;;;;;;2088642;28;20172;-50
2021/08/02 03:18:28;;;;;;;14.02;7.20;;;;;;;;;;2089554;28;20167;-51
2021/08/02 03:19:28;;;;;;;11.77;7.05;;;;;;;;;;2085629;28;20310;-52
2021/08/02 03:20:28;;;;;;;11.73;7.20;;;;;;;;;;2089358;28;20211;-54
2021/08/02 03:21:29;;;;;;;10.18;7.10;;;;;;;;;;2092613;28;20296;-51
2021/08/02 03:22:37;;;;;;;8.52;7.05;;;;;;;;;;2096943;28;20213;-51
2021/08/02 03:23:42;;;;;;;13.35;7.13;;;;;;;;;;2090262;28;20225;-51
2021/08/02 03:24:46;;;;;;;9.35;6.43;;;;;;;;;;2096808;28;20183;-51
2021/08/02 03:25:51;;;;;;;10.60;7.13;;;;;;;;;;2080845;28;20195;-53
2021/08/02 03:26:54;;;;;;;10.90;7.15;;;;;;;;;;2076159;28;20181;-51
2021/08/02 03:28:07;;;;;;;9.40;6.72;;;;;;;;;;2095221;28;20168;-51
2021/08/02 03:29:12;;;;;;;7.75;6.80;;;;;;;;;;2094354;28;20880;-53
2021/08/02 03:30:13;;;;;;;10.35;7.30;;;;;;;;;;2089528;28;20659;-52
2021/08/02 03:31:16;;;;;;;9.10;6.13;;;;;;;;;;2090376;28;20187;-51
2021/08/02 03:32:18;;;;;;;8.98;6.30;;;;;;;;;;2093352;28;20179;-55
2021/08/02 03:33:39;;;;;;;10.13;6.88;;;;;;;;;;2089685;28;20236;-53
2021/08/02 03:34:39;;;;;;;10.70;6.85;;;;;;;;;;2088961;28;20192;-54
2021/08/02 03:35:42;;;;;;;8.85;6.97;;;;;;;;;;2089013;28;20183;-52
2021/08/02 03:36:43;;;;;;;9.80;7.18;;;;;;;;;;2093994;28;20183;-51
2021/08/02 03:37:44;;;;;;;9.80;7.18;;;;;;;;;;2086373;28;20184;-53
2021/08/02 03:38:47;;;;;;;10.75;6.82;;;;;;;;;;2081566;28;20198;-52
2021/08/02 03:39:48;;;;;;;11.90;7.30;;;;;;;;;;2088811;28;20198;-52
2021/08/02 03:40:49;;;;;;;9.52;6.90;;;;;;;;;;2087827;28;20179;-52
2021/08/02 03:41:50;;;;;;;8.13;6.97;;;;;;;;;;2083826;28;20583;-51
2021/08/02 03:42:51;;;;;;;11.32;7.40;;;;;;;;;;2091265;28;20175;-51
2021/08/02 03:43:52;;;;;;;10.85;7.05;;;;;;;;;;2082727;28;20164;-51
2021/08/02 03:44:52;;;;;;;12.50;6.85;;;;;;;;;;2092200;28;20262;-50
2021/08/02 03:45:53;;;;;;;10.23;7.30;;;;;;;;;;2090201;28;20199;-50
2021/08/02 03:46:54;;;;;;;8.00;6.53;;;;;;;;;;2092194;28;20167;-50
2021/08/02 03:47:54;;;;;;;11.43;6.78;;;;;;;;;;2096184;28;20183;-52
2021/08/02 03:48:55;;;;;;;11.50;7.63;;;;;;;;;;2089136;28;20691;-51
2021/08/02 03:49:55;;;;;;;12.50;6.80;;;;;;;;;;2090423;28;20183;-51
2021/08/02 03:50:55;;;;;;;12.52;6.95;;;;;;;;;;2095821;28;20171;-52
2021/08/02 03:51:57;;;;;;;12.85;6.93;;;;;;;;;;2080071;28;20192;-51
2021/08/02 03:52:58;;;;;;;12.10;7.10;;;;;;;;;;2082661;28;20180;-54
2021/08/02 03:53:59;;;;;;;9.93;6.65;;;;;;;;;;2088417;28;20185;-56
2021/08/02 03:54:59;;;;;;;11.43;7.10;;;;;;;;;;2088471;28;20172;-50
2021/08/02 03:55:59;;;;;;;12.73;6.93;;;;;;;;;;2092494;28;20199;-53
2021/08/02 03:57:01;;;;;;;8.48;7.22;;;;;;;;;;2094875;28;20265;-52
2021/08/02 03:58:02;;;;;;;7.82;7.03;;;;;;;;;;2091640;28;20242;-51
2021/08/02 03:59:02;;;;;;;11.45;6.80;;;;;;;;;;2089416;28;20595;-52
2021/08/02 04:00:03;;;;;;;10.65;8.13;;;;;;;;;;2087861;28;20185;-51
2021/08/02 04:01:13;;;;;;;9.43;7.57;;;;;;;;;;2087230;28;20224;-50
2021/08/02 04:02:14;;;;;;;11.98;7.80;;;;;;;;;;2090828;28;20606;-54
2021/08/02 04:03:15;;;;;;;11.57;7.10;;;;;;;;;;2089896;28;20189;-52
2021/08/02 04:04:16;;;;;;;9.40;7.60;;;;;;;;;;2093301;28;20198;-51
2021/08/02 04:05:17;;;;;;;11.95;7.95;;;;;;;;;;2092210;28;20163;-52
2021/08/02 04:06:17;;;;;;;12.38;7.80;;;;;;;;;;2084971;28;20203;-51
2021/08/02 04:07:17;;;;;;;8.20;7.28;;;;;;;;;;2093097;28;20194;-52
2021/08/02 04:08:17;;;;;;;12.02;8.65;;;;;;;;;;2092237;28;20538;-51
2021/08/02 04:09:18;;;;;;;13.57;8.25;;;;;;;;;;2084562;28;20223;-52
2021/08/02 04:10:18;;;;;;;11.52;8.45;;;;;;;;;;2088368;28;20221;-51
2021/08/02 04:11:18;;;;;;;12.55;8.43;;;;;;;;;;2088912;28;20187;-55
2021/08/02 04:12:18;;;;;;;11.27;7.70;;;;;;;;;;2090969;28;20251;-53
2021/08/02 04:13:19;;;;;;;11.45;8.38;;;;;;;;;;2089672;28;20200;-52
2021/08/02 04:14:19;;;;;;;15.77;8.98;;;;;;;;;;2087238;28;20178;-53
2021/08/02 04:15:19;;;;;;;13.20;8.63;;;;;;;;;;2095631;28;20627;-52
2021/08/02 04:16:20;;;;;;;11.38;8.52;;;;;;;;;;2093784;28;20690;-54
2021/08/02 04:17:20;;;;;;;13.23;9.50;;;;;;;;;;2095171;28;20558;-50
2021/08/02 04:18:20;;;;;;;16.42;9.43;;;;;;;;;;2094317;28;20167;-52
2021/08/02 04:19:20;;;;;;;13.05;8.55;;;;;;;;;;2090625;28;20191;-52
2021/08/02 04:20:21;;;;;;;16.65;9.02;;;;;;;;;;2095523;28;20175;-53
2021/08/02 04:21:21;;;;;;;13.60;8.00;;;;;;;;;;2093228;28;20661;-52
2021/08/02 04:22:21;;;;;;;16.13;9.00;;;;;;;;;;2090823;28;20282;-51
2021/08/02 04:23:22;;;;;;;13.85;8.75;;;;;;;;;;2091585;28;20229;-53
2021/08/02 04:24:22;;;;;;;14.57;9.10;;;;;;;;;;2095072;28;20706;-51
2021/08/02 04:25:22;;;;;;;15.40;9.73;;;;;;;;;;2095476;28;20332;-50
2021/08/02 04:26:23;;;;;;;15.40;9.90;;;;;;;;;;2092946;28;20203;-52
2021/08/02 04:27:23;;;;;;;11.90;8.65;;;;;;;;;;2094819;28;20681;-52
2021/08/02 04:28:23;;;;;;;13.20;9.27;;;;;;;;;;2089706;28;20659;-52
2021/08/02 04:29:23;;;;;;;15.52;9.63;;;;;;;;;;2081462;28;20178;-55
2021/08/02 04:30:24;;;;;;;13.13;9.32;;;;;;;;;;2081852;28;20359;-52
2021/08/02 04:31:25;;;;;;;16.63;9.63;;;;;;;;;;2081333;28;20509;-52
2021/08/02 04:32:25;;;;;;;11.82;9.30;;;;;;;;;;2095993;28;20162;-52
2021/08/02 04:33:26;;;;;;;16.05;9.52;;;;;;;;;;2090777;28;20225;-53
2021/08/02 04:34:26;;;;;;;14.48;10.30;;;;;;;;;;2095486;28;20198;-52
2021/08/02 04:35:26;;;;;;;9.90;8.55;;;;;;;;;;2092676;28;20643;-52
2021/08/02 04:36:27;;;;;;;14.90;9.63;;;;;;;;;;2096695;28;20258;-52
2021/08/02 04:37:27;;;;;;;11.73;9.13;;;;;;;;;;2097296;28;20526;-51
2021/08/02 04:38:27;;;;;;;11.13;9.48;;;;;;;;;;2094654;28;20210;-52
2021/08/02 04:39:27;;;;;;;11.75;9.20;;;;;;;;;;2093636;28;20163;-54
2021/08/02 04:40:28;;;;;;;14.93;9.20;;;;;;;;;;2092955;28;20514;-52
2021/08/02 04:41:28;;;;;;;12.02;9.18;;;;;;;;;;2092278;28;20179;-52
2021/08/02 04:42:32;;;;;;;12.95;9.63;;;;;;;;;;2092511;28;20698;-52
2021/08/02 04:43:32;;;;;;;14.70;9.32;;;;;;;;;;2093347;28;20198;-52
2021/08/02 04:44:32;;;;;;;15.00;9.77;;;;;;;;;;2093750;28;20262;-52
2021/08/02 04:45:33;;;;;;;12.23;9.15;;;;;;;;;;2085374;28;20199;-52
2021/08/02 04:46:33;;;;;;;14.75;9.40;;;;;;;;;;2085737;28;20156;-51
2021/08/02 04:47:33;;;;;;;12.65;9.38;;;;;;;;;;2085860;28;20203;-51
2021/08/02 04:48:34;;;;;;;12.52;9.35;;;;;;;;;;2087741;28;20183;-51
2021/08/02 04:49:34;;;;;;;15.65;9.80;;;;;;;;;;2084501;28;20651;-53
2021/08/02 04:50:34;;;;;;;12.70;9.07;;;;;;;;;;2084780;28;20176;-54
2021/08/02 04:51:35;;;;;;;14.95;9.60;;;;;;;;;;2083719;28;20180;-52
2021/08/02 04:52:35;;;;;;;13.00;9.43;;;;;;;;;;2089236;28;20628;-53
2021/08/02 04:53:35;;;;;;;12.60;9.27;;;;;;;;;;2098210;28;20182;-51
2021/08/02 04:54:35;;;;;;;9.73;8.60;;;;;;;;;;2094410;28;20174;-50
2021/08/02 04:55:36;;;;;;;10.13;8.38;;;;;;;;;;2093535;28;20251;-51
2021/08/02 04:56:36;;;;;;;15.48;9.10;;;;;;;;;;2098962;28;20178;-49
2021/08/02 04:57:36;;;;;;;11.00;8.55;;;;;;;;;;2089540;28;20263;-50
2021/08/02 04:58:37;;;;;;;10.15;9.10;;;;;;;;;;2087658;28;20207;-50
2021/08/02 04:59:39;;;;;;;14.57;9.15;;;;;;;;;;2092322;28;20211;-50
2021/08/02 05:00:40;;;;;;;10.38;8.73;;;;;;;;;;2094260;28;20186;-52
2021/08/02 05:01:40;;;;;;;16.00;9.07;;;;;;;;;;2093743;28;20640;-52
2021/08/02 05:02:40;;;;;;;11.13;8.27;;;;;;;;;;2086572;28;20171;-53
2021/08/02 05:03:41;;;;;;;15.07;9.52;;;;;;;;;;2079900;28;20187;-52
2021/08/02 05:04:41;;;;;;;10.15;8.13;;;;;;;;;;2081520;28;20272;-52
2021/08/02 05:05:41;;;;;;;10.60;8.40;;;;;;;;;;2083713;28;20188;-51
2021/08/02 05:06:41;;;;;;;9.23;8.23;;;;;;;;;;2086314;28;20199;-53
2021/08/02 05:07:42;;;;;;;11.23;9.07;;;;;;;;;;2089491;28;20680;-51
2021/08/02 05:08:42;;;;;;;9.50;8.45;;;;;;;;;;2087437;28;20550;-52
2021/08/02 05:09:42;;;;;;;10.10;8.38;;;;;;;;;;2088944;28;20671;-52
2021/08/02 05:10:43;;;;;;;12.40;8.57;;;;;;;;;;2089241;28;20179;-52
2021/08/02 05:11:43;;;;;;;11.48;7.88;;;;;;;;;;2089784;28;20172;-51
2021/08/02 05:12:43;;;;;;;11.43;8.45;;;;;;;;;;2087561;28;20172;-54
2021/08/02 05:13:46;;;;;;;11.65;8.80;;;;;;;;;;2096852;28;20206;-53
2021/08/02 05:14:47;;;;;;;12.20;8.68;;;;;;;;;;2089827;28;20179;-55
2021/08/02 05:15:47;;;;;;;11.13;8.65;;;;;;;;;;2081501;28;20207;-54
2021/08/02 05:16:47;;;;;;;9.63;8.50;;;;;;;;;;2090450;28;20171;-51
2021/08/02 05:17:48;;;;;;;11.02;8.38;;;;;;;;;;2095496;28;20167;-51
2021/08/02 05:18:48;;;;;;;12.95;8.68;;;;;;;;;;2094950;28;20167;-53
2021/08/02 05:19:48;;;;;;;9.45;8.13;;;;;;;;;;2096382;28;20545;-51
2021/08/02 05:20:48;;;;;;;11.80;8.23;;;;;;;;;;2095218;28;20174;-52
2021/08/02 05:21:49;;;;;;;8.90;7.78;;;;;;;;;;2083235;28;20188;-51
2021/08/02 05:22:50;;;;;;;12.38;8.27;;;;;;;;;;2094431;28;20202;-52
2021/08/02 05:23:52;;;;;;;9.52;8.43;;;;;;;;;;2082509;28;20518;-53
2021/08/02 05:24:52;;;;;;;10.07;8.18;;;;;;;;;;2089636;28;20219;-54
2021/08/02 05:25:53;;;;;;;10.13;8.30;;;;;;;;;;2092926;28;20274;-53
2021/08/02 05:26:53;;;;;;;9.77;7.63;;;;;;;;;;2094430;28;20565;-53
2021/08/02 05:27:53;;;;;;;10.43;7.13;;;;;;;;;;2077314;28;20189;-51
2021/08/02 05:28:54;;;;;;;12.10;7.97;;;;;;;;;;2087737;28;20171;-52
2021/08/02 05:29:54;;;;;;;11.88;8.13;;;;;;;;;;2088153;28;20274;-51
2021/08/02 05:30:54;;;;;;;9.98;7.85;;;;;;;;;;2090938;28;20604;-53
2021/08/02 05:31:55;;;;;;;9.80;7.60;;;;;;;;;;2090920;28;20564;-50
2021/08/02 05:32:55;;;;;;;9.15;7.68;;;;;;;;;;2089929;28;20266;-56
2021/08/02 05:33:55;;;;;;;12.73;8.23;;;;;;;;;;2085318;28;20191;-52
2021/08/02 05:34:56;;;;;;;8.50;7.63;;;;;;;;;;2089787;28;20179;-53
2021/08/02 05:35:56;;;;;;;8.45;7.20;;;;;;;;;;2092511;28;20272;-50
2021/08/02 05:36:56;;;;;;;8.68;7.50;;;;;;;;;;2086273;28;20169;-50
2021/08/02 05:37:56;;;;;;;10.00;7.97;;;;;;;;;;2080105;28;20180;-52
2021/08/02 05:38:57;;;;;;;13.77;7.68;;;;;;;;;;2088494;28;20881;-50
2021/08/02 05:39:57;;;;;;;10.02;7.47;;;;;;;;;;2089087;28;20285;-53
2021/08/02 05:40:58;;;;;;;9.68;7.63;;;;;;;;;;2090152;28;20172;-50
2021/08/02 05:41:58;;;;;;;8.40;7.45;;;;;;;;;;2084472;28;20192;-52
2021/08/02 05:42:59;;;;;;;13.80;8.25;;;;;;;;;;2090896;28;20164;-53
2021/08/02 05:43:59;;;;;;;9.90;7.68;;;;;;;;;;2092510;28;20183;-50
2021/08/02 05:44:59;;;;;;;7.60;6.82;;;;;;;;;;2096954;28;20162;-53
2021/08/02 05:46:00;;;;;;;10.18;7.05;;;;;;;;;;2090273;28;20250;-53
2021/08/02 05:47:00;;;;;;;10.15;7.55;;;;;;;;;;2090009;28;20176;-54
2021/08/02 05:48:00;;;;;;;9.25;7.35;;;;;;;;;;2092063;28;20251;-54
2021/08/02 05:49:01;;;;;;;9.57;7.13;;;;;;;;;;2093469;28;20171;-51
2021/08/02 05:50:03;;;;;;;7.40;6.63;;;;;;;;;;2086178;28;20468;-53
2021/08/02 05:51:03;;;;;;;9.75;7.28;;;;;;;;;;2097434;28;20184;-53
2021/08/02 05:52:04;;;;;;;8.88;7.13;;;;;;;;;;2096059;28;20172;-51
2021/08/02 05:53:04;;;;;;;7.68;6.88;;;;;;;;;;2090987;28;20187;-52
2021/08/02 05:54:04;;;;;;;7.65;6.85;;;;;;;;;;2090095;28;20182;-51
2021/08/02 05:55:05;;;;;;;9.77;6.78;;;;;;;;;;2091962;28;20224;-52
2021/08/02 05:56:05;;;;;;;9.60;6.47;;;;;;;;;;2094796;28;20192;-52
2021/08/02 05:57:05;;;;;;;10.52;6.68;;;;;;;;;;2092672;28;20183;-51
2021/08/02 05:58:06;;;;;;;8.45;6.72;;;;;;;;;;2094778;28;20631;-52
2021/08/02 05:59:06;;;;;;;8.48;6.75;;;;;;;;;;2090552;28;20785;-51
2021/08/02 06:00:07;;;;;;;9.30;6.97;;;;;;;;;;2093383;28;20171;-51
2021/08/02 06:01:13;;;;;;;6.88;6.15;;;;;;;;;;2095292;28;20186;-51
2021/08/02 06:02:14;;;;;;;7.18;5.63;;;;;;;;;;2094649;28;20523;-51
2021/08/02 06:03:14;;;;;;;5.97;5.47;;;;;;;;;;2093479;28;20256;-51
2021/08/02 06:04:14;;;;;;;8.80;6.57;;;;;;;;;;2094198;28;20206;-51
2021/08/02 06:05:15;;;;;;;7.18;6.20;;;;;;;;;;2093437;28;20183;-51
2021/08/02 06:06:16;;;;;;;7.82;5.43;;;;;;;;;;2093732;28;20187;-50
2021/08/02 06:07:17;;;;;;;7.30;5.63;;;;;;;;;;2098098;28;20198;-54
2021/08/02 06:08:17;;;;;;;6.60;5.97;;;;;;;;;;2097456;28;20256;-51
2021/08/02 06:09:17;;;;;;;6.00;5.43;;;;;;;;;;2097954;28;20194;-52
2021/08/02 06:10:17;;;;;;;10.60;5.88;;;;;;;;;;2091998;28;20205;-53
2021/08/02 06:11:18;;;;;;;9.50;5.32;;;;;;;;;;2086017;28;20179;-52